sensor_id;sensor_type;location;lat;lon;timestamp;P1;durP1;ratioP1;P2;durP2;ratioP2
79646;SDS011;69119;41.718;21.786;2023-06-04T00:02:05;15.27;;;9.10;;
79646;SDS011;69119;41.718;21.786;2023-06-04T00:04:31;15.50;;;9.60;;
79646;SDS011;69119;41.718;21.786;2023-06-04T00:06:57;15.13;;;9.07;;
79646;SDS011;69119;41.718;21.786;2023-06-04T00:09:23;15.05;;;10.23;;
79646;SDS011;69119;41.718;21.786;2023-06-04T00:11:49;15.60;;;9.10;;
79646;SDS011;69119;41.718;21.786;2023-06-04T00:14:15;16.13;;;9.27;;
79646;SDS011;69119;41.718;21.786;2023-06-04T00:16:41;14.10;;;8.65;;
79646;SDS011;69119;41.718;21.786;2023-06-04T00:19:08;14.25;;;9.25;;
79646;SDS011;69119;41.718;21.786;2023-06-04T00:24:00;15.25;;;9.20;;
79646;SDS011;69119;41.718;21.786;2023-06-04T00:26:27;13.75;;;8.48;;
79646;SDS011;69119;41.718;21.786;2023-06-04T00:28:56;16.02;;;8.40;;
79646;SDS011;69119;41.718;21.786;2023-06-04T00:31:22;15.02;;;8.82;;
79646;SDS011;69119;41.718;21.786;2023-06-04T00:33:48;14.63;;;8.88;;
79646;SDS011;69119;41.718;21.786;2023-06-04T00:36:14;13.98;;;9.35;;
79646;SDS011;69119;41.718;21.786;2023-06-04T00:38:40;14.05;;;8.85;;
79646;SDS011;69119;41.718;21.786;2023-06-04T00:41:07;18.10;;;10.30;;
79646;SDS011;69119;41.718;21.786;2023-06-04T00:43:33;18.35;;;10.63;;
79646;SDS011;69119;41.718;21.786;2023-06-04T00:46:01;19.50;;;11.85;;
79646;SDS011;69119;41.718;21.786;2023-06-04T00:48:28;17.25;;;11.90;;
79646;SDS011;69119;41.718;21.786;2023-06-04T00:50:55;20.30;;;12.95;;
79646;SDS011;69119;41.718;21.786;2023-06-04T00:55:47;19.45;;;10.93;;
79646;SDS011;69119;41.718;21.786;2023-06-04T00:58:13;21.75;;;13.23;;
79646;SDS011;69119;41.718;21.786;2023-06-04T01:00:41;19.98;;;12.70;;
79646;SDS011;69119;41.718;21.786;2023-06-04T01:03:16;22.17;;;12.73;;
79646;SDS011;69119;41.718;21.786;2023-06-04T01:08:15;21.83;;;12.85;;
79646;SDS011;69119;41.718;21.786;2023-06-04T01:10:51;20.65;;;13.13;;
79646;SDS011;69119;41.718;21.786;2023-06-04T01:13:17;19.55;;;13.32;;
79646;SDS011;69119;41.718;21.786;2023-06-04T01:15:43;19.42;;;12.05;;
79646;SDS011;69119;41.718;21.786;2023-06-04T01:20:44;21.55;;;13.25;;
79646;SDS011;69119;41.718;21.786;2023-06-04T01:23:19;21.70;;;12.60;;
79646;SDS011;69119;41.718;21.786;2023-06-04T01:25:58;18.38;;;11.50;;
79646;SDS011;69119;41.718;21.786;2023-06-04T01:28:27;20.40;;;12.93;;
79646;SDS011;69119;41.718;21.786;2023-06-04T01:30:54;18.75;;;11.80;;
79646;SDS011;69119;41.718;21.786;2023-06-04T01:33:21;19.02;;;12.70;;
79646;SDS011;69119;41.718;21.786;2023-06-04T01:38:13;20.25;;;13.25;;
79646;SDS011;69119;41.718;21.786;2023-06-04T01:40:40;19.15;;;11.32;;
79646;SDS011;69119;41.718;21.786;2023-06-04T01:43:06;18.98;;;12.10;;
79646;SDS011;69119;41.718;21.786;2023-06-04T01:45:32;20.13;;;10.88;;
79646;SDS011;69119;41.718;21.786;2023-06-04T01:48:00;21.50;;;11.77;;
79646;SDS011;69119;41.718;21.786;2023-06-04T01:50:26;20.60;;;12.55;;
79646;SDS011;69119;41.718;21.786;2023-06-04T01:52:52;19.95;;;12.15;;
79646;SDS011;69119;41.718;21.786;2023-06-04T01:55:19;19.40;;;11.45;;
79646;SDS011;69119;41.718;21.786;2023-06-04T01:57:45;20.38;;;11.68;;
79646;SDS011;69119;41.718;21.786;2023-06-04T02:00:15;20.08;;;11.98;;
79646;SDS011;69119;41.718;21.786;2023-06-04T02:02:42;20.70;;;12.82;;
79646;SDS011;69119;41.718;21.786;2023-06-04T02:05:09;20.27;;;12.10;;
79646;SDS011;69119;41.718;21.786;2023-06-04T02:07:35;18.60;;;11.43;;
79646;SDS011;69119;41.718;21.786;2023-06-04T02:10:04;17.63;;;10.02;;
79646;SDS011;69119;41.718;21.786;2023-06-04T02:12:31;17.48;;;11.60;;
79646;SDS011;69119;41.718;21.786;2023-06-04T02:14:57;18.00;;;10.35;;
79646;SDS011;69119;41.718;21.786;2023-06-04T02:17:23;18.17;;;11.52;;
79646;SDS011;69119;41.718;21.786;2023-06-04T02:19:50;18.35;;;11.07;;
79646;SDS011;69119;41.718;21.786;2023-06-04T02:22:17;17.67;;;10.48;;
79646;SDS011;69119;41.718;21.786;2023-06-04T02:24:43;16.75;;;10.82;;
79646;SDS011;69119;41.718;21.786;2023-06-04T02:27:09;16.63;;;10.27;;
79646;SDS011;69119;41.718;21.786;2023-06-04T02:29:36;16.80;;;9.98;;
79646;SDS011;69119;41.718;21.786;2023-06-04T02:34:28;16.52;;;9.07;;
79646;SDS011;69119;41.718;21.786;2023-06-04T02:36:54;18.40;;;10.30;;
79646;SDS011;69119;41.718;21.786;2023-06-04T02:39:20;20.00;;;11.35;;
79646;SDS011;69119;41.718;21.786;2023-06-04T02:41:46;19.52;;;12.05;;
79646;SDS011;69119;41.718;21.786;2023-06-04T02:44:12;22.27;;;12.90;;
79646;SDS011;69119;41.718;21.786;2023-06-04T02:46:38;20.58;;;11.55;;
79646;SDS011;69119;41.718;21.786;2023-06-04T02:51:30;19.98;;;11.25;;
79646;SDS011;69119;41.718;21.786;2023-06-04T02:53:57;23.13;;;13.40;;
79646;SDS011;69119;41.718;21.786;2023-06-04T02:58:51;21.90;;;13.52;;
79646;SDS011;69119;41.718;21.786;2023-06-04T03:01:19;22.98;;;14.77;;
79646;SDS011;69119;41.718;21.786;2023-06-04T03:03:46;23.55;;;13.15;;
79646;SDS011;69119;41.718;21.786;2023-06-04T03:08:41;24.20;;;12.75;;
79646;SDS011;69119;41.718;21.786;2023-06-04T03:11:08;22.20;;;11.88;;
79646;SDS011;69119;41.718;21.786;2023-06-04T03:13:34;22.58;;;13.10;;
79646;SDS011;69119;41.718;21.786;2023-06-04T03:16:00;26.30;;;14.52;;
79646;SDS011;69119;41.718;21.786;2023-06-04T03:20:53;24.13;;;12.85;;
79646;SDS011;69119;41.718;21.786;2023-06-04T03:23:19;24.83;;;14.05;;
79646;SDS011;69119;41.718;21.786;2023-06-04T03:25:45;20.85;;;12.75;;
79646;SDS011;69119;41.718;21.786;2023-06-04T03:28:11;21.77;;;12.93;;
79646;SDS011;69119;41.718;21.786;2023-06-04T03:30:37;25.60;;;12.95;;
79646;SDS011;69119;41.718;21.786;2023-06-04T03:33:03;23.05;;;14.45;;
79646;SDS011;69119;41.718;21.786;2023-06-04T03:35:29;25.40;;;14.23;;
79646;SDS011;69119;41.718;21.786;2023-06-04T03:37:55;23.33;;;13.10;;
79646;SDS011;69119;41.718;21.786;2023-06-04T03:40:21;21.00;;;11.88;;
79646;SDS011;69119;41.718;21.786;2023-06-04T03:42:47;24.33;;;13.88;;
79646;SDS011;69119;41.718;21.786;2023-06-04T03:45:13;21.25;;;13.40;;
79646;SDS011;69119;41.718;21.786;2023-06-04T03:47:39;22.45;;;12.88;;
79646;SDS011;69119;41.718;21.786;2023-06-04T03:50:06;19.83;;;11.77;;
79646;SDS011;69119;41.718;21.786;2023-06-04T03:52:32;22.63;;;13.52;;
79646;SDS011;69119;41.718;21.786;2023-06-04T03:54:58;21.48;;;12.73;;
79646;SDS011;69119;41.718;21.786;2023-06-04T03:57:25;26.13;;;15.77;;
79646;SDS011;69119;41.718;21.786;2023-06-04T03:59:51;22.98;;;12.90;;
79646;SDS011;69119;41.718;21.786;2023-06-04T04:02:17;24.80;;;14.10;;
79646;SDS011;69119;41.718;21.786;2023-06-04T04:04:44;25.55;;;12.40;;
79646;SDS011;69119;41.718;21.786;2023-06-04T04:07:10;23.30;;;13.40;;
79646;SDS011;69119;41.718;21.786;2023-06-04T04:09:36;24.13;;;13.60;;
79646;SDS011;69119;41.718;21.786;2023-06-04T04:12:03;23.17;;;13.82;;
79646;SDS011;69119;41.718;21.786;2023-06-04T04:14:29;23.85;;;13.70;;
79646;SDS011;69119;41.718;21.786;2023-06-04T04:16:55;24.02;;;14.43;;
79646;SDS011;69119;41.718;21.786;2023-06-04T04:19:21;26.67;;;15.05;;
79646;SDS011;69119;41.718;21.786;2023-06-04T04:21:47;24.90;;;13.80;;
79646;SDS011;69119;41.718;21.786;2023-06-04T04:24:32;26.75;;;15.48;;
79646;SDS011;69119;41.718;21.786;2023-06-04T04:27:02;27.95;;;14.82;;
79646;SDS011;69119;41.718;21.786;2023-06-04T04:29:29;28.02;;;16.17;;
79646;SDS011;69119;41.718;21.786;2023-06-04T04:31:57;25.27;;;16.15;;
79646;SDS011;69119;41.718;21.786;2023-06-04T04:34:25;27.70;;;16.75;;
79646;SDS011;69119;41.718;21.786;2023-06-04T04:36:52;26.98;;;16.10;;
79646;SDS011;69119;41.718;21.786;2023-06-04T04:39:24;25.63;;;13.68;;
79646;SDS011;69119;41.718;21.786;2023-06-04T04:41:50;26.05;;;14.30;;
79646;SDS011;69119;41.718;21.786;2023-06-04T04:44:16;29.50;;;14.45;;
79646;SDS011;69119;41.718;21.786;2023-06-04T04:46:43;27.23;;;14.88;;
79646;SDS011;69119;41.718;21.786;2023-06-04T04:49:09;28.90;;;16.13;;
79646;SDS011;69119;41.718;21.786;2023-06-04T04:51:35;27.38;;;14.88;;
79646;SDS011;69119;41.718;21.786;2023-06-04T04:54:01;29.20;;;15.07;;
79646;SDS011;69119;41.718;21.786;2023-06-04T04:56:28;27.20;;;13.02;;
79646;SDS011;69119;41.718;21.786;2023-06-04T04:58:54;25.63;;;13.75;;
79646;SDS011;69119;41.718;21.786;2023-06-04T05:01:21;25.80;;;14.05;;
79646;SDS011;69119;41.718;21.786;2023-06-04T05:03:49;24.88;;;13.90;;
79646;SDS011;69119;41.718;21.786;2023-06-04T05:06:15;26.95;;;13.82;;
79646;SDS011;69119;41.718;21.786;2023-06-04T05:08:41;18.08;;;9.90;;
79646;SDS011;69119;41.718;21.786;2023-06-04T05:11:07;19.70;;;11.20;;
79646;SDS011;69119;41.718;21.786;2023-06-04T05:13:33;18.98;;;11.38;;
79646;SDS011;69119;41.718;21.786;2023-06-04T05:16:00;17.98;;;9.68;;
79646;SDS011;69119;41.718;21.786;2023-06-04T05:18:31;16.35;;;8.52;;
79646;SDS011;69119;41.718;21.786;2023-06-04T05:20:58;14.52;;;9.07;;
79646;SDS011;69119;41.718;21.786;2023-06-04T05:23:25;17.83;;;8.63;;
79646;SDS011;69119;41.718;21.786;2023-06-04T05:25:52;16.15;;;8.13;;
79646;SDS011;69119;41.718;21.786;2023-06-04T05:28:18;16.38;;;9.60;;
79646;SDS011;69119;41.718;21.786;2023-06-04T05:30:45;15.27;;;8.55;;
79646;SDS011;69119;41.718;21.786;2023-06-04T05:33:13;14.65;;;8.02;;
79646;SDS011;69119;41.718;21.786;2023-06-04T05:35:46;14.10;;;8.50;;
79646;SDS011;69119;41.718;21.786;2023-06-04T05:38:13;15.55;;;8.02;;
79646;SDS011;69119;41.718;21.786;2023-06-04T05:40:42;13.82;;;7.57;;
79646;SDS011;69119;41.718;21.786;2023-06-04T05:45:34;14.80;;;7.95;;
79646;SDS011;69119;41.718;21.786;2023-06-04T05:48:00;12.27;;;6.65;;
79646;SDS011;69119;41.718;21.786;2023-06-04T05:50:27;12.35;;;6.75;;
79646;SDS011;69119;41.718;21.786;2023-06-04T05:52:53;11.48;;;6.70;;
79646;SDS011;69119;41.718;21.786;2023-06-04T05:55:19;12.60;;;6.82;;
79646;SDS011;69119;41.718;21.786;2023-06-04T05:57:46;11.68;;;6.15;;
79646;SDS011;69119;41.718;21.786;2023-06-04T06:00:12;10.60;;;6.10;;
79646;SDS011;69119;41.718;21.786;2023-06-04T06:02:38;11.32;;;5.78;;
79646;SDS011;69119;41.718;21.786;2023-06-04T06:05:05;11.18;;;6.70;;
79646;SDS011;69119;41.718;21.786;2023-06-04T06:07:33;13.65;;;6.85;;
79646;SDS011;69119;41.718;21.786;2023-06-04T06:12:25;14.80;;;6.63;;
79646;SDS011;69119;41.718;21.786;2023-06-04T06:14:52;11.18;;;6.90;;
79646;SDS011;69119;41.718;21.786;2023-06-04T06:17:18;11.38;;;6.35;;
79646;SDS011;69119;41.718;21.786;2023-06-04T06:19:45;10.48;;;6.25;;
79646;SDS011;69119;41.718;21.786;2023-06-04T06:22:11;11.75;;;6.10;;
79646;SDS011;69119;41.718;21.786;2023-06-04T06:24:37;12.32;;;7.93;;
79646;SDS011;69119;41.718;21.786;2023-06-04T06:27:03;14.70;;;7.50;;
79646;SDS011;69119;41.718;21.786;2023-06-04T06:29:30;11.93;;;7.30;;
79646;SDS011;69119;41.718;21.786;2023-06-04T06:31:56;13.02;;;6.90;;
79646;SDS011;69119;41.718;21.786;2023-06-04T06:34:22;11.57;;;6.38;;
79646;SDS011;69119;41.718;21.786;2023-06-04T06:36:48;11.73;;;6.25;;
79646;SDS011;69119;41.718;21.786;2023-06-04T06:39:15;14.05;;;6.95;;
79646;SDS011;69119;41.718;21.786;2023-06-04T06:41:41;11.68;;;6.20;;
79646;SDS011;69119;41.718;21.786;2023-06-04T06:46:33;15.15;;;6.68;;
79646;SDS011;69119;41.718;21.786;2023-06-04T06:48:59;12.95;;;6.43;;
79646;SDS011;69119;41.718;21.786;2023-06-04T06:51:25;12.82;;;6.70;;
79646;SDS011;69119;41.718;21.786;2023-06-04T06:53:51;11.50;;;5.75;;
79646;SDS011;69119;41.718;21.786;2023-06-04T06:56:17;11.95;;;6.38;;
79646;SDS011;69119;41.718;21.786;2023-06-04T06:58:47;12.52;;;6.55;;
79646;SDS011;69119;41.718;21.786;2023-06-04T07:01:13;12.55;;;7.25;;
79646;SDS011;69119;41.718;21.786;2023-06-04T07:03:39;10.95;;;6.40;;
79646;SDS011;69119;41.718;21.786;2023-06-04T07:06:05;11.95;;;6.25;;
79646;SDS011;69119;41.718;21.786;2023-06-04T07:08:32;11.27;;;6.15;;
79646;SDS011;69119;41.718;21.786;2023-06-04T07:10:58;12.63;;;6.15;;
79646;SDS011;69119;41.718;21.786;2023-06-04T07:13:25;9.25;;;5.72;;
79646;SDS011;69119;41.718;21.786;2023-06-04T07:15:51;9.88;;;5.07;;
79646;SDS011;69119;41.718;21.786;2023-06-04T07:18:17;9.55;;;5.68;;
79646;SDS011;69119;41.718;21.786;2023-06-04T07:20:43;10.07;;;4.65;;
79646;SDS011;69119;41.718;21.786;2023-06-04T07:25:35;8.90;;;4.50;;
79646;SDS011;69119;41.718;21.786;2023-06-04T07:30:29;8.55;;;4.78;;
79646;SDS011;69119;41.718;21.786;2023-06-04T07:32:58;11.32;;;4.88;;
79646;SDS011;69119;41.718;21.786;2023-06-04T07:35:24;7.97;;;5.13;;
79646;SDS011;69119;41.718;21.786;2023-06-04T07:37:51;8.48;;;4.70;;
79646;SDS011;69119;41.718;21.786;2023-06-04T07:40:17;8.52;;;5.00;;
79646;SDS011;69119;41.718;21.786;2023-06-04T07:45:09;9.27;;;4.95;;
79646;SDS011;69119;41.718;21.786;2023-06-04T07:47:35;7.85;;;4.82;;
79646;SDS011;69119;41.718;21.786;2023-06-04T07:50:02;9.93;;;5.53;;
79646;SDS011;69119;41.718;21.786;2023-06-04T07:52:28;8.00;;;4.90;;
79646;SDS011;69119;41.718;21.786;2023-06-04T07:54:54;9.73;;;4.88;;
79646;SDS011;69119;41.718;21.786;2023-06-04T07:59:46;8.00;;;4.88;;
79646;SDS011;69119;41.718;21.786;2023-06-04T08:02:12;9.55;;;5.20;;
79646;SDS011;69119;41.718;21.786;2023-06-04T08:04:39;8.57;;;4.18;;
79646;SDS011;69119;41.718;21.786;2023-06-04T08:07:06;9.65;;;5.00;;
79646;SDS011;69119;41.718;21.786;2023-06-04T08:09:32;10.45;;;5.78;;
79646;SDS011;69119;41.718;21.786;2023-06-04T08:11:58;8.70;;;5.35;;
79646;SDS011;69119;41.718;21.786;2023-06-04T08:14:24;7.70;;;4.72;;
79646;SDS011;69119;41.718;21.786;2023-06-04T08:16:52;8.20;;;4.28;;
79646;SDS011;69119;41.718;21.786;2023-06-04T08:19:18;6.88;;;4.03;;
79646;SDS011;69119;41.718;21.786;2023-06-04T08:21:44;7.25;;;3.72;;
79646;SDS011;69119;41.718;21.786;2023-06-04T08:24:10;7.20;;;4.28;;
79646;SDS011;69119;41.718;21.786;2023-06-04T08:26:37;10.18;;;4.43;;
79646;SDS011;69119;41.718;21.786;2023-06-04T08:29:03;6.68;;;3.67;;
79646;SDS011;69119;41.718;21.786;2023-06-04T08:31:29;7.43;;;4.18;;
79646;SDS011;69119;41.718;21.786;2023-06-04T08:33:55;7.72;;;4.28;;
79646;SDS011;69119;41.718;21.786;2023-06-04T08:36:22;6.75;;;3.92;;
79646;SDS011;69119;41.718;21.786;2023-06-04T08:38:48;8.57;;;4.60;;
79646;SDS011;69119;41.718;21.786;2023-06-04T08:44:02;7.97;;;4.00;;
79646;SDS011;69119;41.718;21.786;2023-06-04T08:46:31;7.18;;;4.35;;
79646;SDS011;69119;41.718;21.786;2023-06-04T08:49:01;10.20;;;4.93;;
79646;SDS011;69119;41.718;21.786;2023-06-04T08:51:28;8.30;;;3.95;;
79646;SDS011;69119;41.718;21.786;2023-06-04T08:53:54;8.15;;;4.28;;
79646;SDS011;69119;41.718;21.786;2023-06-04T08:56:22;7.65;;;4.38;;
79646;SDS011;69119;41.718;21.786;2023-06-04T08:58:48;8.40;;;4.78;;
79646;SDS011;69119;41.718;21.786;2023-06-04T09:01:14;8.30;;;4.05;;
79646;SDS011;69119;41.718;21.786;2023-06-04T09:03:41;8.10;;;4.30;;
79646;SDS011;69119;41.718;21.786;2023-06-04T09:06:07;9.10;;;4.72;;
79646;SDS011;69119;41.718;21.786;2023-06-04T09:08:34;7.45;;;3.97;;
79646;SDS011;69119;41.718;21.786;2023-06-04T09:11:03;7.10;;;4.53;;
79646;SDS011;69119;41.718;21.786;2023-06-04T09:13:31;6.60;;;4.13;;
79646;SDS011;69119;41.718;21.786;2023-06-04T09:16:01;7.15;;;4.03;;
79646;SDS011;69119;41.718;21.786;2023-06-04T09:18:28;7.57;;;4.43;;
79646;SDS011;69119;41.718;21.786;2023-06-04T09:21:00;7.28;;;4.45;;
79646;SDS011;69119;41.718;21.786;2023-06-04T09:23:27;9.80;;;4.60;;
79646;SDS011;69119;41.718;21.786;2023-06-04T09:25:53;8.00;;;4.47;;
79646;SDS011;69119;41.718;21.786;2023-06-04T09:28:19;9.35;;;5.18;;
79646;SDS011;69119;41.718;21.786;2023-06-04T09:30:54;8.85;;;4.57;;
79646;SDS011;69119;41.718;21.786;2023-06-04T09:33:20;6.47;;;3.20;;
79646;SDS011;69119;41.718;21.786;2023-06-04T09:35:53;7.15;;;3.75;;
79646;SDS011;69119;41.718;21.786;2023-06-04T09:38:20;6.95;;;3.80;;
79646;SDS011;69119;41.718;21.786;2023-06-04T09:40:47;6.13;;;3.50;;
79646;SDS011;69119;41.718;21.786;2023-06-04T09:43:23;6.30;;;3.58;;
79646;SDS011;69119;41.718;21.786;2023-06-04T09:45:49;7.45;;;4.50;;
79646;SDS011;69119;41.718;21.786;2023-06-04T09:48:19;7.05;;;4.70;;
79646;SDS011;69119;41.718;21.786;2023-06-04T09:50:48;8.50;;;4.18;;
79646;SDS011;69119;41.718;21.786;2023-06-04T09:55:41;7.38;;;4.00;;
79646;SDS011;69119;41.718;21.786;2023-06-04T09:58:07;7.15;;;3.90;;
79646;SDS011;69119;41.718;21.786;2023-06-04T10:00:33;6.40;;;3.42;;
79646;SDS011;69119;41.718;21.786;2023-06-04T10:03:01;6.88;;;4.25;;
79646;SDS011;69119;41.718;21.786;2023-06-04T10:05:32;6.00;;;3.20;;
79646;SDS011;69119;41.718;21.786;2023-06-04T10:08:04;6.63;;;3.00;;
79646;SDS011;69119;41.718;21.786;2023-06-04T10:10:30;7.57;;;3.47;;
79646;SDS011;69119;41.718;21.786;2023-06-04T10:13:06;5.97;;;3.35;;
79646;SDS011;69119;41.718;21.786;2023-06-04T10:15:33;7.32;;;3.08;;
79646;SDS011;69119;41.718;21.786;2023-06-04T10:18:01;7.07;;;2.72;;
79646;SDS011;69119;41.718;21.786;2023-06-04T10:20:28;5.68;;;3.08;;
79646;SDS011;69119;41.718;21.786;2023-06-04T10:22:55;6.88;;;3.53;;
79646;SDS011;69119;41.718;21.786;2023-06-04T10:25:22;10.05;;;3.83;;
79646;SDS011;69119;41.718;21.786;2023-06-04T10:27:50;6.80;;;3.60;;
79646;SDS011;69119;41.718;21.786;2023-06-04T10:30:16;6.38;;;4.47;;
79646;SDS011;69119;41.718;21.786;2023-06-04T10:32:42;6.60;;;3.28;;
79646;SDS011;69119;41.718;21.786;2023-06-04T10:35:08;11.02;;;4.40;;
79646;SDS011;69119;41.718;21.786;2023-06-04T10:37:35;7.13;;;3.83;;
79646;SDS011;69119;41.718;21.786;2023-06-04T10:40:01;6.97;;;4.25;;
79646;SDS011;69119;41.718;21.786;2023-06-04T10:42:37;7.22;;;3.55;;
79646;SDS011;69119;41.718;21.786;2023-06-04T10:45:03;6.30;;;3.78;;
79646;SDS011;69119;41.718;21.786;2023-06-04T10:47:29;6.95;;;3.72;;
79646;SDS011;69119;41.718;21.786;2023-06-04T10:50:06;6.50;;;3.78;;
79646;SDS011;69119;41.718;21.786;2023-06-04T10:52:32;7.70;;;4.13;;
79646;SDS011;69119;41.718;21.786;2023-06-04T10:55:05;6.68;;;3.78;;
79646;SDS011;69119;41.718;21.786;2023-06-04T10:57:31;6.82;;;3.25;;
79646;SDS011;69119;41.718;21.786;2023-06-04T10:59:58;6.45;;;3.58;;
79646;SDS011;69119;41.718;21.786;2023-06-04T11:02:25;6.15;;;3.42;;
79646;SDS011;69119;41.718;21.786;2023-06-04T11:05:04;6.57;;;3.42;;
79646;SDS011;69119;41.718;21.786;2023-06-04T11:07:42;6.30;;;3.40;;
79646;SDS011;69119;41.718;21.786;2023-06-04T11:10:12;6.25;;;3.45;;
79646;SDS011;69119;41.718;21.786;2023-06-04T11:12:45;5.97;;;2.85;;
79646;SDS011;69119;41.718;21.786;2023-06-04T11:15:12;6.63;;;3.38;;
79646;SDS011;69119;41.718;21.786;2023-06-04T11:17:38;6.18;;;4.13;;
79646;SDS011;69119;41.718;21.786;2023-06-04T11:20:04;6.60;;;3.72;;
79646;SDS011;69119;41.718;21.786;2023-06-04T11:22:32;6.78;;;3.67;;
79646;SDS011;69119;41.718;21.786;2023-06-04T11:24:59;6.78;;;3.45;;
79646;SDS011;69119;41.718;21.786;2023-06-04T11:27:25;8.10;;;3.60;;
79646;SDS011;69119;41.718;21.786;2023-06-04T11:29:51;6.18;;;3.25;;
79646;SDS011;69119;41.718;21.786;2023-06-04T11:32:21;5.72;;;3.45;;
79646;SDS011;69119;41.718;21.786;2023-06-04T11:34:48;5.90;;;2.17;;
79646;SDS011;69119;41.718;21.786;2023-06-04T11:37:14;7.43;;;3.60;;
79646;SDS011;69119;41.718;21.786;2023-06-04T11:39:40;6.90;;;4.15;;
79646;SDS011;69119;41.718;21.786;2023-06-04T11:42:09;8.27;;;3.20;;
79646;SDS011;69119;41.718;21.786;2023-06-04T11:44:35;6.10;;;3.13;;
79646;SDS011;69119;41.718;21.786;2023-06-04T11:47:04;5.35;;;2.83;;
79646;SDS011;69119;41.718;21.786;2023-06-04T11:49:31;5.85;;;3.00;;
79646;SDS011;69119;41.718;21.786;2023-06-04T11:51:57;5.78;;;3.15;;
79646;SDS011;69119;41.718;21.786;2023-06-04T11:54:23;5.65;;;2.80;;
79646;SDS011;69119;41.718;21.786;2023-06-04T11:56:49;6.00;;;3.38;;
79646;SDS011;69119;41.718;21.786;2023-06-04T11:59:17;7.00;;;3.65;;
79646;SDS011;69119;41.718;21.786;2023-06-04T12:01:43;6.30;;;3.20;;
79646;SDS011;69119;41.718;21.786;2023-06-04T12:04:13;6.38;;;3.45;;
79646;SDS011;69119;41.718;21.786;2023-06-04T12:06:50;6.45;;;3.42;;
79646;SDS011;69119;41.718;21.786;2023-06-04T12:09:20;6.22;;;3.42;;
79646;SDS011;69119;41.718;21.786;2023-06-04T12:11:47;6.05;;;3.28;;
79646;SDS011;69119;41.718;21.786;2023-06-04T12:14:16;6.45;;;3.13;;
79646;SDS011;69119;41.718;21.786;2023-06-04T12:16:55;6.30;;;2.75;;
79646;SDS011;69119;41.718;21.786;2023-06-04T12:19:21;5.70;;;2.85;;
79646;SDS011;69119;41.718;21.786;2023-06-04T12:21:58;6.15;;;2.92;;
79646;SDS011;69119;41.718;21.786;2023-06-04T12:24:25;6.53;;;2.90;;
79646;SDS011;69119;41.718;21.786;2023-06-04T12:27:00;5.85;;;3.15;;
79646;SDS011;69119;41.718;21.786;2023-06-04T12:29:27;6.30;;;3.40;;
79646;SDS011;69119;41.718;21.786;2023-06-04T12:32:01;7.32;;;3.28;;
79646;SDS011;69119;41.718;21.786;2023-06-04T12:34:27;6.50;;;3.22;;
79646;SDS011;69119;41.718;21.786;2023-06-04T12:36:53;6.07;;;3.20;;
79646;SDS011;69119;41.718;21.786;2023-06-04T12:39:19;5.55;;;2.85;;
79646;SDS011;69119;41.718;21.786;2023-06-04T12:41:45;6.35;;;3.38;;
79646;SDS011;69119;41.718;21.786;2023-06-04T12:44:12;5.65;;;2.92;;
79646;SDS011;69119;41.718;21.786;2023-06-04T12:46:38;6.13;;;3.42;;
79646;SDS011;69119;41.718;21.786;2023-06-04T12:49:04;7.07;;;3.30;;
79646;SDS011;69119;41.718;21.786;2023-06-04T12:51:30;7.22;;;3.10;;
79646;SDS011;69119;41.718;21.786;2023-06-04T12:53:57;5.97;;;3.08;;
79646;SDS011;69119;41.718;21.786;2023-06-04T12:56:23;5.60;;;3.25;;
79646;SDS011;69119;41.718;21.786;2023-06-04T12:58:50;6.75;;;3.13;;
79646;SDS011;69119;41.718;21.786;2023-06-04T13:01:16;9.18;;;2.95;;
79646;SDS011;69119;41.718;21.786;2023-06-04T13:03:42;5.57;;;3.22;;
79646;SDS011;69119;41.718;21.786;2023-06-04T13:06:08;6.15;;;3.03;;
79646;SDS011;69119;41.718;21.786;2023-06-04T13:08:35;7.13;;;3.45;;
79646;SDS011;69119;41.718;21.786;2023-06-04T13:11:01;5.93;;;3.10;;
79646;SDS011;69119;41.718;21.786;2023-06-04T13:13:28;6.60;;;3.22;;
79646;SDS011;69119;41.718;21.786;2023-06-04T13:15:54;6.13;;;2.72;;
79646;SDS011;69119;41.718;21.786;2023-06-04T13:18:21;6.03;;;3.15;;
79646;SDS011;69119;41.718;21.786;2023-06-04T13:20:47;6.25;;;3.38;;
79646;SDS011;69119;41.718;21.786;2023-06-04T13:23:14;6.07;;;2.78;;
79646;SDS011;69119;41.718;21.786;2023-06-04T13:25:40;7.40;;;3.10;;
79646;SDS011;69119;41.718;21.786;2023-06-04T13:28:06;5.88;;;2.65;;
79646;SDS011;69119;41.718;21.786;2023-06-04T13:30:35;8.75;;;3.55;;
79646;SDS011;69119;41.718;21.786;2023-06-04T13:33:02;8.95;;;3.22;;
79646;SDS011;69119;41.718;21.786;2023-06-04T13:35:28;7.28;;;2.95;;
79646;SDS011;69119;41.718;21.786;2023-06-04T13:37:54;6.05;;;3.20;;
79646;SDS011;69119;41.718;21.786;2023-06-04T13:40:20;6.85;;;3.65;;
79646;SDS011;69119;41.718;21.786;2023-06-04T13:42:46;7.53;;;4.80;;
79646;SDS011;69119;41.718;21.786;2023-06-04T13:45:12;6.88;;;3.17;;
79646;SDS011;69119;41.718;21.786;2023-06-04T13:47:38;7.03;;;3.17;;
79646;SDS011;69119;41.718;21.786;2023-06-04T13:50:05;6.43;;;3.83;;
79646;SDS011;69119;41.718;21.786;2023-06-04T13:52:32;6.63;;;3.83;;
79646;SDS011;69119;41.718;21.786;2023-06-04T13:54:58;7.18;;;4.10;;
79646;SDS011;69119;41.718;21.786;2023-06-04T13:57:24;5.63;;;3.15;;
79646;SDS011;69119;41.718;21.786;2023-06-04T13:59:50;7.88;;;4.22;;
79646;SDS011;69119;41.718;21.786;2023-06-04T14:02:17;8.20;;;4.18;;
79646;SDS011;69119;41.718;21.786;2023-06-04T14:04:43;7.63;;;4.28;;
79646;SDS011;69119;41.718;21.786;2023-06-04T14:07:09;7.55;;;4.65;;
79646;SDS011;69119;41.718;21.786;2023-06-04T14:09:35;7.68;;;3.65;;
79646;SDS011;69119;41.718;21.786;2023-06-04T14:12:02;6.38;;;3.30;;
79646;SDS011;69119;41.718;21.786;2023-06-04T14:14:28;6.00;;;3.58;;
79646;SDS011;69119;41.718;21.786;2023-06-04T14:17:01;6.47;;;4.03;;
79646;SDS011;69119;41.718;21.786;2023-06-04T14:19:27;7.47;;;4.78;;
79646;SDS011;69119;41.718;21.786;2023-06-04T14:21:53;6.35;;;3.35;;
79646;SDS011;69119;41.718;21.786;2023-06-04T14:24:20;6.03;;;3.28;;
79646;SDS011;69119;41.718;21.786;2023-06-04T14:26:46;6.93;;;3.85;;
79646;SDS011;69119;41.718;21.786;2023-06-04T14:29:12;6.85;;;3.88;;
79646;SDS011;69119;41.718;21.786;2023-06-04T14:31:38;5.82;;;3.50;;
79646;SDS011;69119;41.718;21.786;2023-06-04T14:34:04;7.32;;;3.33;;
79646;SDS011;69119;41.718;21.786;2023-06-04T14:36:32;5.90;;;3.13;;
79646;SDS011;69119;41.718;21.786;2023-06-04T14:38:58;6.53;;;3.78;;
79646;SDS011;69119;41.718;21.786;2023-06-04T14:41:24;6.00;;;3.17;;
79646;SDS011;69119;41.718;21.786;2023-06-04T14:43:52;6.97;;;3.55;;
79646;SDS011;69119;41.718;21.786;2023-06-04T14:46:18;6.00;;;3.30;;
79646;SDS011;69119;41.718;21.786;2023-06-04T14:48:44;5.40;;;2.30;;
79646;SDS011;69119;41.718;21.786;2023-06-04T14:51:10;6.05;;;2.45;;
79646;SDS011;69119;41.718;21.786;2023-06-04T14:53:36;7.30;;;3.60;;
79646;SDS011;69119;41.718;21.786;2023-06-04T14:56:05;5.90;;;3.05;;
79646;SDS011;69119;41.718;21.786;2023-06-04T14:58:32;6.55;;;3.15;;
79646;SDS011;69119;41.718;21.786;2023-06-04T15:00:58;6.53;;;3.33;;
79646;SDS011;69119;41.718;21.786;2023-06-04T15:03:25;7.72;;;3.20;;
79646;SDS011;69119;41.718;21.786;2023-06-04T15:05:51;6.25;;;3.20;;
79646;SDS011;69119;41.718;21.786;2023-06-04T15:08:17;7.32;;;3.50;;
79646;SDS011;69119;41.718;21.786;2023-06-04T15:10:43;7.53;;;2.70;;